Uvalde Research's Hourly Summary for Saturday, March 18, 2017
Hour Temp
(f)
RH
(%)
Solar Rad.
(MJ/m2)
Rainfall
(in)
Wind
(mph)
3/18/2017 12:00 AM 0 0 0 0 0
3/18/2017 1:00 AM 66 90 0 0 2.52
3/18/2017 2:00 AM 64 94 0 0 1.87
3/18/2017 3:00 AM 62 96 0 0 0.29
3/18/2017 4:00 AM 61 97 0 0 1
3/18/2017 5:00 AM 60 98 0 0 1.57
3/18/2017 6:00 AM 60 98 0 0 1.39
3/18/2017 7:00 AM 61 99 0 0 2.37
3/18/2017 8:00 AM 62 99 0.07 0 2.3
3/18/2017 9:00 AM 64 99 0.18 0 2.34
3/18/2017 10:00 AM 64 99 0.33 0 2.76
3/18/2017 11:00 AM 66 96 0.46 0 2.53
3/18/2017 12:00 PM 68 90 1.02 0 2.63
3/18/2017 1:00 PM 73 77 2.37 0 2.7
3/18/2017 2:00 PM 76 68 2.42 0 3.13
3/18/2017 3:00 PM 78 64 2.16 0 3.43
3/18/2017 4:00 PM 79 62 1.73 0 3.27
3/18/2017 5:00 PM 80 60 1.18 0 3.65
3/18/2017 6:00 PM 80 60 0.63 0 3.91
3/18/2017 7:00 PM 77 65 0.08 0 3.23
3/18/2017 8:00 PM 73 72 0 0 1.9
3/18/2017 9:00 PM 71 76 0 0 1.2
3/18/2017 10:00 PM 69 80 0 0 2.56
3/18/2017 11:00 PM 67 87 0 0 2.39
Data Summary 65 80 12.63 0.00 2.29